Tiempo atmosférico en la estación meteorológica de Orihuela, Alacant/Alicante (26 m.)



Fecha
DESCASC
Temp. máxima en grados centígrados (hora)
DESCASC
Temp. mínima en grados centígrados (hora)
DESCASC
Temp. media en grados centígrados
DESCASC
Racha de viento máxima en m/sg (hora)
DESCASC
Velocidad máxima media en intervalos de 10 minutos(hora)
DESCASC
Precipitaciones diarias en mm
DESCASC
Precipitaciones de 00:00 a 06:00 en mm
DESCASC
Precipitaciones de 06:00 a 12:00 en mm
DESCASC
Precipitaciones de 12:00 a 18:00 en mm
DESCASC
Precipitaciones de 18:00 a 24:00 en mm
DESCASC
28-02-2021 15.9 (14:00) 11.2 (00:00) 13.5 10.28 (18:30) 6.39 (13:30) 0 0 0 0 0
27-02-2021 -- (--) -- (--) -- -- (--) -- (--) -- 0 0 0 --
26-02-2021 17 (14:30) 13 (23:59) 15 8.33 (13:10) 5 (13:10) 0 0 0 0 0
25-02-2021 16.8 (13:20) 8.9 (00:00) 12.8 8.33 (16:50) 4.72 (16:10) 0 0 0 0 0
24-02-2021 18.2 (14:50) 8.7 (00:00) 13.5 8.89 (13:00) 5 (15:30) 0 0 0 0 0
23-02-2021 18.4 (14:10) 4.9 (00:00) 11.6 8.61 (13:10) 4.72 (12:40) 0 0 0 0 0
22-02-2021 17.1 (15:00) 8 (00:00) 12.6 11.67 (15:50) 5.83 (16:50) 0 0 0 0 0
21-02-2021 18.5 (16:30) 9.6 (00:00) 14.1 6.11 (11:30) 3.61 (11:30) 0 0 0 0 0
20-02-2021 16.4 (15:40) 10.4 (00:00) 13.4 8.06 (16:40) 5 (17:10) 0 0 0 0 0
19-02-2021 -- (--) -- (--) -- -- (--) -- (--) -- 0 0 -- 0
18-02-2021 20.7 (16:00) 8.6 (00:00) 14.7 6.11 (17:10) 3.61 (16:40) 0 0 0 0 0
17-02-2021 20 (14:10) 6.2 (00:00) 13.1 6.39 (15:00) 3.89 (13:50) 0 0 0 0 0
16-02-2021 19.6 (17:40) 5.5 (00:00) 12.6 5.28 (13:00) 2.22 (13:20) 0 0 0 0 0
15-02-2021 16.9 (16:20) 7.7 (00:00) 12.3 6.39 (17:20) 3.33 (17:20) 0 0 0 0 0
14-02-2021 -- (--) -- (--) -- -- (--) -- (--) -- 0 0 -- 0
13-02-2021 22.4 (16:20) 11.2 (00:00) 16.8 12.78 (03:10) 6.11 (03:20) 0 0 0 0 0
12-02-2021 23.3 (14:20) 13.3 (00:00) 18.3 14.44 (15:10) 8.33 (15:10) 0 0 0 0 0
11-02-2021 24 (16:30) 8.3 (00:00) 16.2 4.72 (17:10) 2.22 (05:30) 0 0 0 0 0
10-02-2021 22.6 (16:30) 8 (00:00) 15.3 13.06 (16:20) 5.83 (15:40) 0 0 0 0 0
09-02-2021 15.3 (23:59) 5.8 (00:00) 10.6 4.17 (08:40) 1.94 (17:40) 0 0 0 0 0
08-02-2021 19.7 (16:10) 9.9 (00:00) 14.8 13.33 (18:20) 6.94 (17:50) 0 0 0 0 0
07-02-2021 18.8 (15:10) 7.4 (00:00) 13.1 15.28 (18:00) 8.33 (19:00) 0 0 0 0 0
06-02-2021 20.5 (16:20) 7.9 (00:00) 14.2 6.39 (16:50) 3.89 (00:10) 0 0 0 0 0
05-02-2021 18.2 (15:30) 8.4 (00:00) 13.3 7.78 (14:10) 4.44 (14:10) 0 0 0 0 0
04-02-2021 17.8 (14:10) 6.6 (00:00) 12.2 6.94 (15:00) 4.17 (15:00) 0 0 0 0 0
03-02-2021 20.6 (16:20) 9.4 (00:00) 15 5.56 (06:30) 3.33 (06:30) 0 0 0 0 0
02-02-2021 23.5 (17:30) 11.8 (00:00) 17.7 13.06 (03:00) 7.5 (02:50) 0 0 0 0 0
01-02-2021 -- (--) -- (--) -- -- (--) -- (--) -- 0 0 -- 0
31-01-2021 20.8 (15:00) 12.8 (00:00) 16.8 15.83 (15:40) 7.78 (15:40) 0 0 0 0 0
30-01-2021 22.3 (14:50) 10.6 (00:00) 16.4 17.78 (17:30) 9.44 (17:30) 0 0 0 0 0

Gráficas

Temp. máximas Temp. mínimas Temp. medias Precipitaciones Rachas de viento máximas Velocidades máximas media en intervalos de 10 minutos

Datos horarios

Fecha y hora oficial Temperatura (ºC) Velocidad del viento (km/h) Dirección del viento Racha (km/h) Dirección de racha Precipitación (mm) Presión (hPa) Tendencia (hPa) Humedad (%)
2021-02-28 23:00:00 14 14 Este 32 Nordeste 0 -- -- 66
2021-02-28 22:00:00 13.8 13 Nordeste 24 Nordeste 0 -- -- 65
2021-02-28 21:00:00 13.2 9 Nordeste 21 Nordeste -- -- -- 72
2021-02-28 20:00:00 13.4 10 Nordeste 32 Nordeste 0 -- -- 74
2021-02-28 19:00:00 13.9 17 Nordeste 37 Este 0 -- -- 75
2021-02-28 18:00:00 14.8 15 Este 31 Nordeste 0 -- -- 69
2021-02-28 17:00:00 15.1 15 Nordeste 37 Este 0 -- -- 67
2021-02-28 16:00:00 15.2 19 Nordeste 33 Este 0 -- -- 67
2021-02-28 15:00:00 15.5 16 Nordeste 34 Nordeste 0 -- -- 65
2021-02-28 14:00:00 15.9 21 Nordeste 35 Nordeste 0 -- -- 59
2021-02-28 13:00:00 15.4 20 Nordeste 35 Nordeste 0 -- -- 62
2021-02-28 12:00:00 15.6 18 Nordeste 35 Este 0 -- -- 60
2021-02-28 11:00:00 14.6 17 Nordeste 36 Este 0 -- -- 66
2021-02-28 10:00:00 14.4 16 Nordeste 28 Este 0 -- -- 69
2021-02-28 09:00:00 13.6 12 Este 28 Este 0 -- -- 70
2021-02-28 08:00:00 13.5 12 Nordeste 31 Nordeste 0 -- -- 70
2021-02-28 07:00:00 13 11 Nordeste 24 Nordeste 0 -- -- 74
2021-02-28 06:00:00 12.1 4 Sudeste 13 Este 0 -- -- 78
2021-02-28 05:00:00 12.7 6 Nordeste 19 Nordeste 0 -- -- 72
2021-02-28 04:00:00 13.1 7 Nordeste 16 Nordeste 0 -- -- 70
2021-02-28 03:00:00 12.8 4 Nordeste 14 Este 0 -- -- 73
2021-02-28 02:00:00 12.8 8 Nordeste 18 Nordeste 0 -- -- 75
2021-02-28 01:00:00 11.3 0 Calma 5 Sudeste 0 -- -- 81
2021-02-28 00:00:00 11.2 3 Este 9 Este 0 -- -- 82
2021-02-27 23:00:00 10.9 4 Este 8 Sudeste 0 -- -- 83
2021-02-27 22:00:00 11 5 Este 7 Este 0 -- -- 82
2021-02-27 21:00:00 -- -- -- -- -- -- -- -- --
2021-02-27 20:00:00 12.3 5 Nordeste 9 Nordeste 0 -- -- 76
2021-02-27 19:00:00 13.3 5 Este 14 Este 0 -- -- 68
2021-02-27 18:00:00 14.3 9 Este 19 Este 0 -- -- 61
2021-02-27 17:00:00 15.6 9 Este 22 Nordeste 0 -- -- 56
2021-02-27 16:00:00 16.7 9 Nordeste 19 Este 0 -- -- 51
2021-02-27 15:00:00 16.6 7 Este 22 Nordeste 0 -- -- 51
2021-02-27 14:00:00 16.2 7 Este 20 Este 0 -- -- 52
2021-02-27 13:00:00 16 8 Nordeste 20 Este 0 -- -- 54
2021-02-27 12:00:00 14.8 8 Este 21 Este 0 -- -- 59
2021-02-27 11:00:00 14.3 7 Este 15 Norte 0 -- -- 62
2021-02-27 10:00:00 12.4 3 Oeste 7 Sudoeste 0 -- -- 69
2021-02-27 09:00:00 11 3 Sudoeste 6 Sudoeste 0 -- -- 72
2021-02-27 08:00:00 11.5 0 Calma 6 Noroeste 0 -- -- 72
2021-02-27 07:00:00 11.9 4 Norte 9 Nordeste 0 -- -- 71
2021-02-27 06:00:00 12.4 4 Norte 12 Norte 0 -- -- 70
2021-02-27 05:00:00 12.4 5 Norte 11 Norte -- -- -- 73
2021-02-27 04:00:00 12.5 5 Norte 10 Norte 0 -- -- 72
2021-02-27 03:00:00 12.6 5 Nordeste 14 Nordeste 0 -- -- 71
2021-02-27 02:00:00 12.6 6 Nordeste 12 Este 0 -- -- 75
2021-02-27 01:00:00 12.4 5 Nordeste 18 Este 0 -- -- 76
2021-02-27 00:00:00 13 9 Nordeste 20 Este 0 -- -- 74
2021-02-26 23:00:00 13.4 8 Nordeste 16 Este 0 -- -- 72
2021-02-26 22:00:00 13.5 6 Nordeste 16 Este 0 -- -- 71
2021-02-26 21:00:00 13.6 11 Nordeste 22 Nordeste 0 -- -- 71
2021-02-26 20:00:00 13.8 10 Este 21 Este 0 -- -- 68
2021-02-26 19:00:00 14.1 11 Nordeste 25 Nordeste 0 -- -- 68
2021-02-26 18:00:00 14.7 15 Este 25 Este 0 -- -- 65
2021-02-26 17:00:00 15.7 13 Este 27 Este 0 -- -- 62
2021-02-26 16:00:00 15.9 15 Este 27 Este 0 -- -- 60
2021-02-26 15:00:00 16.8 13 Este 28 Este 0 -- -- 60
2021-02-26 14:00:00 16.7 14 Este 30 Nordeste 0 -- -- 60
2021-02-26 13:00:00 16.5 16 Este 27 Nordeste 0 -- -- 57
2021-02-26 12:00:00 15 13 Este 26 Nordeste 0 -- -- 66
2021-02-26 11:00:00 14.4 9 Nordeste 23 Nordeste 0 -- -- 70
2021-02-26 10:00:00 14.2 13 Nordeste 22 Nordeste 0 -- -- 71
2021-02-26 09:00:00 13.8 9 Nordeste 19 Nordeste 0 -- -- 72
2021-02-26 08:00:00 13.4 8 Nordeste 18 Este 0 -- -- 74
2021-02-26 07:00:00 13.5 7 Nordeste 19 Nordeste 0 -- -- 76
2021-02-26 06:00:00 13.6 6 Nordeste 15 Norte 0 -- -- 72
2021-02-26 05:00:00 13.3 4 Nordeste 15 Nordeste 0 -- -- 72
2021-02-26 04:00:00 13.9 8 Nordeste 15 Nordeste 0 -- -- 70
2021-02-26 03:00:00 13.9 6 Norte 21 Norte 0 -- -- 70
2021-02-26 02:00:00 14.1 11 Nordeste 23 Nordeste 0 -- -- 70
2021-02-26 01:00:00 14.1 13 Nordeste 24 Nordeste 0 -- -- 72
2021-02-26 00:00:00 13.9 8 Nordeste 17 Nordeste 0 -- -- 77
2021-02-25 23:00:00 14 9 Nordeste 17 Nordeste 0 -- -- 77
2021-02-25 22:00:00 14 9 Nordeste 24 Nordeste 0 -- -- 80
2021-02-25 21:00:00 14.1 8 Nordeste 21 Este 0 -- -- 79
2021-02-25 20:00:00 14.2 11 Este 24 Nordeste 0 -- -- 77
2021-02-25 19:00:00 14.6 10 Este 26 Este 0 -- -- 76
2021-02-25 18:00:00 15.2 14 Este 28 Este 0 -- -- 71
2021-02-25 17:00:00 16.1 14 Nordeste 30 Este 0 -- -- 66
2021-02-25 16:00:00 16.3 11 Este 27 Nordeste 0 -- -- 64
2021-02-25 15:00:00 16.5 14 Este 26 Este 0 -- -- 65
2021-02-25 14:00:00 16.7 14 Este 28 Nordeste 0 -- -- 64
2021-02-25 13:00:00 16.4 9 Nordeste 22 Nordeste 0 -- -- 67
2021-02-25 12:00:00 16.1 10 Nordeste 21 Este 0 -- -- 68
2021-02-25 11:00:00 15.1 10 Nordeste 21 Este 0 -- -- 75
2021-02-25 10:00:00 13.3 0 Calma 4 Sur 0 -- -- 80
2021-02-25 09:00:00 11.8 0 Calma 6 Sudeste 0 -- -- 83
2021-02-25 08:00:00 10.9 0 Calma 5 Oeste 0 -- -- 85
2021-02-25 07:00:00 10.5 2 Sudoeste 5 Sudoeste 0 -- -- 86
2021-02-25 06:00:00 10 0 Calma 3 Sudoeste 0 -- -- 88
2021-02-25 05:00:00 9.9 0 Calma 4 Sudoeste 0 -- -- 87
2021-02-25 04:00:00 9.5 3 Sudoeste 5 Oeste 0 -- -- 88
2021-02-25 03:00:00 9.4 0 Calma 6 Sudoeste 0 -- -- 88
2021-02-25 02:00:00 9.5 4 Sudoeste 10 Sudoeste 0 -- -- 87
2021-02-25 01:00:00 9 4 Sudoeste 7 Sudoeste 0 -- -- 87
2021-02-25 00:00:00 10 2 Oeste 4 Oeste 0 -- -- 88
2021-02-24 23:00:00 10.6 4 Sudoeste 6 Sudoeste 0 -- -- 86
2021-02-24 22:00:00 12 3 Sudeste 12 Nordeste 0 -- -- 84
2021-02-24 21:00:00 12.3 5 Este 7 Este 0 -- -- 82
2021-02-24 20:00:00 13.2 5 Nordeste 15 Nordeste 0 -- -- 78
2021-02-24 19:00:00 14.3 8 Nordeste 19 Este 0 -- -- 72
2021-02-24 18:00:00 15.7 12 Este 28 Nordeste 0 -- -- 64
2021-02-24 17:00:00 16.5 15 Nordeste 29 Este 0 -- -- 60
2021-02-24 16:00:00 17.3 15 Este 31 Este 0 -- -- 59
2021-02-24 15:00:00 18 17 Este 31 Nordeste 0 -- -- 57
2021-02-24 14:00:00 17.7 14 Este 27 Nordeste 0 -- -- 59
2021-02-24 13:00:00 18 15 Este 32 Este 0 -- -- 61
2021-02-24 12:00:00 16.7 5 Norte 12 Nordeste 0 -- -- 61
2021-02-24 11:00:00 14.4 4 Sudoeste 10 Sudoeste 0 -- -- 63
2021-02-24 10:00:00 13.4 5 Sudoeste 9 Sudoeste 0 -- -- 66
2021-02-24 09:00:00 12.1 0 Calma 4 Sudoeste 0 -- -- 74
2021-02-24 08:00:00 11.8 0 Calma 4 Sudoeste 0 -- -- 77
2021-02-24 07:00:00 11.9 0 Calma 5 Sudoeste 0 -- -- 79
2021-02-24 06:00:00 11.7 0 Calma 6 Sudoeste 0 -- -- 84
2021-02-24 05:00:00 11.4 0 Calma 4 Norte 0 -- -- 86
2021-02-24 04:00:00 10.9 2 Este 3 Norte 0 -- -- 87
2021-02-24 03:00:00 10.5 0 Calma 9 Nordeste 0 -- -- 89
2021-02-24 02:00:00 9.3 3 Sur 7 Sudoeste 0 -- -- 90
2021-02-24 01:00:00 9.7 0 Calma 5 Sudoeste 0 -- -- 84
2021-02-24 00:00:00 11.4 0 Calma 7 Sudoeste 0 -- -- 82
2021-02-23 23:00:00 12.4 3 Sudoeste 4 Noroeste 0 -- -- 81
2021-02-23 22:00:00 12.7 0 Calma 5 Sudeste 0 -- -- 81
2021-02-23 21:00:00 12.9 4 Nordeste 5 Nordeste 0 -- -- 81
2021-02-23 20:00:00 13.3 3 Nordeste 15 Este 0 -- -- 78
2021-02-23 19:00:00 14.5 8 Este 17 Este 0 -- -- 73
2021-02-23 18:00:00 16.4 10 Este 22 Este 0 -- -- 61
2021-02-23 17:00:00 17.5 10 Este 24 Nordeste 0 -- -- 52
2021-02-23 16:00:00 17.5 10 Este 27 Nordeste 0 -- -- 48
2021-02-23 15:00:00 17.7 14 Nordeste 30 Este 0 -- -- 47
2021-02-23 14:00:00 18.3 12 Este 31 Este 0 -- -- 43
2021-02-23 13:00:00 17.9 14 Este 30 Este 0 -- -- 47
2021-02-23 12:00:00 16.6 10 Nordeste 22 Este 0 -- -- 56
2021-02-23 11:00:00 15.4 5 Nordeste 12 Este 0 -- -- 56
2021-02-23 10:00:00 11.6 4 Sudoeste 8 Sudoeste 0 -- -- 68
2021-02-23 09:00:00 8.2 0 Calma 3 Oeste 0 -- -- 83
2021-02-23 08:00:00 4.9 0 Calma 4 Sur 0 -- -- 84
2021-02-23 07:00:00 5.7 3 Sudeste 4 Este 0 -- -- 82
2021-02-23 06:00:00 6.7 0 Calma 9 Sur 0 -- -- 79
2021-02-23 05:00:00 7.7 2 Oeste 9 Sur 0 -- -- 75
2021-02-23 04:00:00 8.2 4 Sur 9 Sudeste 0 -- -- 72
2021-02-23 03:00:00 7.6 4 Sudeste 7 Sudoeste 0 -- -- 75
2021-02-23 02:00:00 9.6 4 Noroeste 9 Sur 0 -- -- 65
2021-02-23 01:00:00 9.8 0 Calma 9 Sudeste 0 -- -- 64
2021-02-23 00:00:00 12.5 6 Sudeste 23 Oeste 0 -- -- 56
2021-02-22 23:00:00 11.5 4 Oeste 8 Sudoeste 0 -- -- 59
2021-02-22 22:00:00 13.2 5 Sudoeste 16 Oeste 0 -- -- 51
2021-02-22 21:00:00 13.7 10 Oeste 23 Sudoeste 0 -- -- 49
2021-02-22 20:00:00 14.8 9 Oeste 26 Oeste 0 -- -- 45
2021-02-22 19:00:00 15.1 9 Oeste 27 Oeste 0 -- -- 43
2021-02-22 18:00:00 15.9 14 Noroeste 35 Noroeste 0 -- -- 40
2021-02-22 17:00:00 16.3 18 Noroeste 37 Noroeste 0 -- -- 39
2021-02-22 16:00:00 16 14 Noroeste 42 Oeste 0 -- -- 39
2021-02-22 15:00:00 17.1 17 Oeste 42 Oeste 0 -- -- 38
2021-02-22 14:00:00 16 15 Oeste 37 Oeste 0 -- -- 39
2021-02-22 13:00:00 15.5 17 Oeste 34 Oeste 0 -- -- 40
2021-02-22 12:00:00 15.6 15 Oeste 37 Oeste 0 -- -- 38
2021-02-22 11:00:00 14.7 13 Oeste 31 Oeste 0 -- -- 41
2021-02-22 10:00:00 13.9 12 Oeste 26 Oeste 0 -- -- 46
2021-02-22 09:00:00 10.3 0 Calma 9 Sudeste 0 -- -- 67
2021-02-22 08:00:00 8.5 0 Calma 8 Sudoeste 0 -- -- 73
2021-02-22 07:00:00 8.4 0 Calma 5 Sudeste 0 -- -- 77
2021-02-22 06:00:00 10.1 0 Calma 9 Sudoeste 0 -- -- 72
2021-02-22 05:00:00 12 6 Sudoeste 18 Oeste 0 -- -- 60
2021-02-22 04:00:00 13.2 10 Oeste 32 Oeste 0 -- -- 54
2021-02-22 03:00:00 13 9 Oeste 22 Noroeste 0 -- -- 61
2021-02-22 02:00:00 12.1 9 Sudoeste 13 Sudoeste 0 -- -- 71
2021-02-22 01:00:00 12.3 6 Sudoeste 13 Sudoeste 0 -- -- 72
2021-02-22 00:00:00 13 6 Sudoeste 10 Oeste 0 -- -- 72
2021-02-21 23:00:00 14 4 Oeste 15 Sur 0 -- -- 71
2021-02-21 22:00:00 14.8 6 Sudeste 18 Sudeste 0 -- -- 66
2021-02-21 21:00:00 15.4 0 Calma 10 Este 0 -- -- 69
2021-02-21 20:00:00 15.6 0 Calma 8 Sur 0 -- -- 70
2021-02-21 19:00:00 16.8 0 Calma 8 Sur 0 -- -- 64
2021-02-21 18:00:00 17.9 0 Calma 17 Nordeste 0 -- -- 59
2021-02-21 17:00:00 18.1 10 Este 21 Este 0 -- -- 58
2021-02-21 16:00:00 17.8 2 Noroeste 8 Oeste 0 -- -- 57
2021-02-21 15:00:00 17 4 Oeste 8 Noroeste 0 -- -- 58
2021-02-21 14:00:00 16.4 4 Oeste 8 Oeste 0 -- -- 61
2021-02-21 13:00:00 15.6 3 Oeste 12 Sudoeste 0 -- -- 64
2021-02-21 12:00:00 14 7 Sudoeste 22 Sudoeste 0 -- -- 70
2021-02-21 11:00:00 12.8 8 Sudoeste 13 Sudoeste 0 -- -- 75
2021-02-21 10:00:00 11.7 3 Sudoeste 7 Sudoeste 0 -- -- 81
2021-02-21 09:00:00 10.6 3 Sudoeste 12 Sudoeste 0 -- -- 85
2021-02-21 08:00:00 9.7 6 Oeste 11 Sudoeste 0 -- -- 88
2021-02-21 07:00:00 10 3 Sudoeste 12 Sudoeste 0 -- -- 87
2021-02-21 06:00:00 9.9 0 Calma 7 Sudoeste 0 -- -- 89
2021-02-21 05:00:00 10.7 4 Sudoeste 10 Sudoeste 0 -- -- 88
2021-02-21 04:00:00 10.8 3 Sudoeste 10 Sudoeste 0 -- -- 88
2021-02-21 03:00:00 10.9 2 Sur 9 Sudoeste 0 -- -- 88
2021-02-21 02:00:00 10.9 4 Sudoeste 8 Sudoeste 0 -- -- 88
2021-02-21 01:00:00 11.7 4 Oeste 8 Oeste 0 -- -- 85
2021-02-21 00:00:00 12.5 2 Sudeste 6 Nordeste 0 -- -- 85
2021-02-20 23:00:00 12.8 3 Este 15 Nordeste 0 -- -- 84
2021-02-20 22:00:00 13.4 8 Nordeste 21 Nordeste 0 -- -- 83
2021-02-20 21:00:00 13.8 11 Nordeste 23 Este 0 -- -- 80
2021-02-20 20:00:00 13.9 11 Nordeste 24 Nordeste 0 -- -- 80
2021-02-20 19:00:00 13.9 13 Nordeste 24 Nordeste 0 -- -- 79
2021-02-20 18:00:00 14.5 12 Este 29 Este 0 -- -- 76
2021-02-20 17:00:00 15.5 16 Este 29 Este 0 -- -- 67
2021-02-20 16:00:00 16.1 15 Este 27 Nordeste 0 -- -- 64
2021-02-20 15:00:00 16.1 13 Este 23 Este 0 -- -- 65
2021-02-20 14:00:00 15.3 12 Nordeste 21 Nordeste 0 -- -- 69
2021-02-20 13:00:00 14.9 9 Nordeste 17 Este 0 -- -- 69
2021-02-20 12:00:00 13.8 6 Nordeste 14 Este 0 -- -- 73
2021-02-20 11:00:00 13.4 4 Nordeste 13 Este 0 -- -- 74
2021-02-20 10:00:00 12.3 3 Nordeste 7 Este 0 -- -- 80
2021-02-20 09:00:00 11.8 3 Oeste 5 Oeste 0 -- -- 84
2021-02-20 08:00:00 11.6 0 Calma 4 Sudoeste 0 -- -- 85
2021-02-20 07:00:00 11.5 0 Calma 3 Oeste 0 -- -- 90
2021-02-20 06:00:00 11.5 0 Calma 5 Este 0 -- -- 90
2021-02-20 05:00:00 11.3 2 Sur 4 Sudoeste 0 -- -- 91
2021-02-20 04:00:00 10.9 2 Oeste 8 Sudoeste 0 -- -- 92
2021-02-20 03:00:00 11.3 3 Oeste 4 Oeste 0 -- -- 91
2021-02-20 02:00:00 11 0 Calma 4 Sudoeste 0 -- -- 91
2021-02-20 01:00:00 10.5 2 Oeste 5 Nordeste 0 -- -- 92
2021-02-20 00:00:00 10.4 3 Este 8 Nordeste 0 -- -- 91
2021-02-19 23:00:00 10.6 5 Este 8 Este 0 -- -- 89
2021-02-19 22:00:00 11.9 5 Nordeste 11 Nordeste 0 -- -- 89
2021-02-19 21:00:00 12.4 7 Nordeste 15 Nordeste 0 -- -- 86
2021-02-19 20:00:00 13.5 9 Nordeste 16 Este 0 -- -- 82
2021-02-19 19:00:00 15.2 9 Nordeste 17 Nordeste 0 -- -- 74
2021-02-19 18:00:00 17.9 11 Nordeste 21 Este 0 -- -- 63
2021-02-19 17:00:00 -- -- -- -- -- -- -- -- --
2021-02-19 16:00:00 20.7 10 Este 18 Este 0 -- -- 53
2021-02-19 15:00:00 19.7 7 Nordeste 14 Nordeste 0 -- -- 52
2021-02-19 14:00:00 17.7 4 Norte 9 Nordeste 0 -- -- 63
2021-02-19 13:00:00 14.7 4 Norte 9 Norte 0 -- -- 77
2021-02-19 12:00:00 11.6 2 Este 5 Norte 0 -- -- 92
2021-02-19 11:00:00 10.3 0 Calma 6 Sudoeste 0 -- -- 94
2021-02-19 10:00:00 9.6 3 Oeste 5 Sudoeste 0 -- -- 94
2021-02-19 09:00:00 9.2 0 Calma 5 Oeste 0 -- -- 94
2021-02-19 08:00:00 8.6 0 Calma 7 Sudoeste 0 -- -- 94
2021-02-19 07:00:00 7.6 3 Oeste 5 Oeste 0 -- -- 94
2021-02-19 06:00:00 7 0 Calma 9 Este 0 -- -- 93
2021-02-19 05:00:00 7.7 6 Este 11 Este 0 -- -- 91
2021-02-19 04:00:00 8 4 Este 7 Nordeste 0 -- -- 91
2021-02-19 03:00:00 8.3 3 Nordeste 6 Nordeste 0 -- -- 89
2021-02-19 02:00:00 9.6 4 Sudoeste 11 Sudoeste 0 -- -- 90
2021-02-19 01:00:00 9.7 6 Sudoeste 10 Sudoeste 0 -- -- 90
2021-02-19 00:00:00 9.8 2 Oeste 9 Sudoeste 0 -- -- 88
2021-02-18 23:00:00 11 3 Sudoeste 6 Sudoeste 0 -- -- 85
2021-02-18 22:00:00 11.8 3 Noroeste 7 Nordeste 0 -- -- 85
2021-02-18 21:00:00 12.5 5 Nordeste 13 Nordeste 0 -- -- 83
2021-02-18 20:00:00 13.3 6 Nordeste 14 Nordeste 0 -- -- 81
2021-02-18 19:00:00 14.6 10 Nordeste 18 Nordeste 0 -- -- 76
2021-02-18 18:00:00 16.7 11 Nordeste 22 Nordeste 0 -- -- 68
2021-02-18 17:00:00 18.6 13 Este 21 Este 0 -- -- 60
2021-02-18 16:00:00 20.7 8 Este 15 Este 0 -- -- 45
2021-02-18 15:00:00 20.2 5 Este 12 Sudeste 0 -- -- 39
2021-02-18 14:00:00 19.2 5 Nordeste 10 Este 0 -- -- 42
2021-02-18 13:00:00 18.1 5 Este 13 Este 0 -- -- 43
2021-02-18 12:00:00 15.5 2 Noroeste 8 Oeste 0 -- -- 56
2021-02-18 11:00:00 12.7 3 Sudoeste 13 Sudoeste 0 -- -- 67
2021-02-18 10:00:00 10.6 9 Sudoeste 16 Oeste 0 -- -- 77
2021-02-18 09:00:00 8.8 9 Sudoeste 17 Sudoeste 0 -- -- 87
2021-02-18 08:00:00 8.9 6 Oeste 15 Sudoeste 0 -- -- 87
2021-02-18 07:00:00 10.6 8 Sudoeste 15 Sudoeste 0 -- -- 86
2021-02-18 06:00:00 10.8 6 Oeste 15 Sudoeste 0 -- -- 86
2021-02-18 05:00:00 11.4 7 Sudoeste 12 Sudoeste 0 -- -- 84
2021-02-18 04:00:00 11.6 3 Sudoeste 8 Sudoeste 0 -- -- 82
2021-02-18 03:00:00 11.9 3 Nordeste 6 Este 0 -- -- 82
2021-02-18 02:00:00 12 0 Calma 7 Este 0 -- -- 85
2021-02-18 01:00:00 12 5 Este 13 Este 0 -- -- 87
2021-02-18 00:00:00 12 3 Nordeste 7 Este 0 -- -- 90
2021-02-17 23:00:00 11.8 2 Este 8 Nordeste 0 -- -- 90
2021-02-17 22:00:00 11.7 6 Nordeste 9 Nordeste 0 -- -- 89
2021-02-17 21:00:00 12.2 4 Nordeste 11 Nordeste 0 -- -- 86
2021-02-17 20:00:00 13.6 7 Nordeste 13 Nordeste 0 -- -- 82
2021-02-17 19:00:00 15.5 6 Nordeste 18 Este 0 -- -- 70
2021-02-17 18:00:00 17.8 10 Nordeste 20 Este 0 -- -- 61
2021-02-17 17:00:00 19 11 Nordeste 21 Nordeste 0 -- -- 53
2021-02-17 16:00:00 19.6 12 Nordeste 22 Este 0 -- -- 49
2021-02-17 15:00:00 19.9 14 Nordeste 23 Este 0 -- -- 48
2021-02-17 14:00:00 19.7 13 Este 23 Este 0 -- -- 50
2021-02-17 13:00:00 19.2 10 Nordeste 18 Nordeste 0 -- -- 45
2021-02-17 12:00:00 17.7 4 Nordeste 8 Nordeste 0 -- -- 48
2021-02-17 11:00:00 14.3 3 Oeste 10 Sudoeste 0 -- -- 60
2021-02-17 10:00:00 10.9 3 Oeste 7 Sudoeste 0 -- -- 73
2021-02-17 09:00:00 7.6 2 Oeste 9 Oeste 0 -- -- 84
2021-02-17 08:00:00 6.3 3 Oeste 5 Sudoeste 0 -- -- 85
2021-02-17 07:00:00 6.7 3 Oeste 6 Oeste 0 -- -- 85
2021-02-17 06:00:00 6.6 2 Oeste 5 Sudoeste 0 -- -- 87
2021-02-17 05:00:00 6.5 0 Calma 4 Oeste 0 -- -- 87
2021-02-17 04:00:00 6.9 2 Sudoeste 5 Oeste 0 -- -- 86
2021-02-17 03:00:00 7.3 4 Oeste 7 Oeste 0 -- -- 88
2021-02-17 02:00:00 7 2 Oeste 5 Oeste 0 -- -- 87
2021-02-17 01:00:00 7.5 0 Calma 5 Oeste 0 -- -- 85
2021-02-17 00:00:00 9.7 2 Sudoeste 9 Sudoeste 0 -- -- 79
2021-02-16 23:00:00 9.8 3 Oeste 7 Sudoeste 0 -- -- 81
2021-02-16 22:00:00 9.9 0 Calma 4 Sudoeste 0 -- -- 78
2021-02-16 21:00:00 12 2 Sur 5 Sur 0 -- -- 72
2021-02-16 20:00:00 13.4 0 Calma 5 Nordeste 0 -- -- 66
2021-02-16 19:00:00 15.6 3 Este 9 Este 0 -- -- 59
2021-02-16 18:00:00 19.6 2 Oeste 8 Oeste 0 -- -- 45
2021-02-16 17:00:00 19.3 4 Oeste 12 Oeste 0 -- -- 45
2021-02-16 16:00:00 18.1 5 Oeste 14 Oeste 0 -- -- 47
2021-02-16 15:00:00 17.1 8 Sudoeste 17 Sudoeste 0 -- -- 49
2021-02-16 14:00:00 16.5 8 Sudoeste 18 Sudoeste 0 -- -- 52
2021-02-16 13:00:00 15.4 6 Oeste 19 Sudoeste 0 -- -- 56
2021-02-16 12:00:00 14.1 6 Oeste 14 Oeste 0 -- -- 61
2021-02-16 11:00:00 12.1 5 Oeste 13 Oeste 0 -- -- 74
2021-02-16 10:00:00 10.1 6 Sudoeste 9 Sudoeste 0 -- -- 81
2021-02-16 09:00:00 9 4 Sudoeste 5 Sudoeste 0 -- -- 84
2021-02-16 08:00:00 8 0 Calma 4 Sudeste 0 -- -- 87
2021-02-16 07:00:00 7.6 2 Sudoeste 6 Sudoeste 0 -- -- 87
2021-02-16 06:00:00 7.3 0 Calma 6 Sudoeste 0 -- -- 87
2021-02-16 05:00:00 7.1 0 Calma 6 Sudoeste 0 -- -- 86
2021-02-16 04:00:00 7.1 2 Sudoeste 6 Sudoeste 0 -- -- 89
2021-02-16 03:00:00 5.9 3 Sudoeste 5 Oeste 0 -- -- 90
2021-02-16 02:00:00 5.8 0 Calma 5 Sudoeste 0 -- -- 89
2021-02-16 01:00:00 7.5 2 Sudoeste 4 Sudoeste 0 -- -- 85
2021-02-16 00:00:00 7.7 0 Calma 3 Sudoeste 0 -- -- 84
2021-02-15 23:00:00 9.2 0 Calma 4 Este 0 -- -- 80
2021-02-15 22:00:00 10.2 2 Este 6 Nordeste 0 -- -- 78
2021-02-15 21:00:00 10.7 4 Nordeste 6 Nordeste 0 -- -- 77
2021-02-15 20:00:00 11.8 4 Nordeste 10 Este 0 -- -- 72
2021-02-15 19:00:00 13.1 7 Este 17 Este 0 -- -- 67
2021-02-15 18:00:00 15.1 8 Este 23 Este 0 -- -- 59
2021-02-15 17:00:00 16.6 9 Este 20 Este 0 -- -- 52
2021-02-15 16:00:00 16.6 8 Sudeste 21 Este 0 -- -- 51
2021-02-15 15:00:00 16.6 10 Sudeste 17 Este 0 -- -- 51
2021-02-15 14:00:00 16.4 5 Sur 18 Sudeste 0 -- -- 56
2021-02-15 13:00:00 15.8 8 Este 19 Este 0 -- -- 57
2021-02-15 12:00:00 16 5 Sudeste 18 Este 0 -- -- 57
2021-02-15 11:00:00 15 5 Sudeste 12 Este 0 -- -- 63
2021-02-15 10:00:00 14.1 4 Sudeste 8 Este 0 -- -- 75
2021-02-15 09:00:00 12 4 Este 8 Nordeste 0 -- -- 89
2021-02-15 08:00:00 11.5 4 Nordeste 7 Nordeste 0 -- -- 87
2021-02-15 07:00:00 12.3 2 Este 6 Norte 0 -- -- 84
2021-02-15 06:00:00 12.4 3 Nordeste 7 Nordeste 0 -- -- 85
2021-02-15 05:00:00 12.6 3 Este 4 Este 0 -- -- 83
2021-02-15 04:00:00 12.7 0 Calma 4 Norte 0 -- -- 83
2021-02-15 03:00:00 12.8 3 Nordeste 4 Nordeste 0 -- -- 82
2021-02-15 02:00:00 12.9 3 Nordeste 4 Nordeste 0 -- -- 82
2021-02-15 01:00:00 -- -- -- -- -- -- -- -- --
2021-02-15 00:00:00 -- -- -- -- -- -- -- -- --
2021-02-14 23:00:00 -- -- -- -- -- -- -- -- --
2021-02-14 22:00:00 -- -- -- -- -- -- -- -- --
2021-02-14 21:00:00 -- -- -- -- -- -- -- -- --
2021-02-14 20:00:00 -- -- -- -- -- -- -- -- --
2021-02-14 19:00:00 -- -- -- -- -- -- -- -- --
2021-02-14 18:00:00 -- -- -- -- -- -- -- -- --
2021-02-14 17:00:00 -- -- -- -- -- -- -- -- --
2021-02-14 16:00:00 17.2 14 Nordeste 26 Nordeste 0 -- -- 57
2021-02-14 15:00:00 17.8 16 Este 30 Nordeste 0 -- -- 56
2021-02-14 14:00:00 18.1 17 Este 30 Este 0 -- -- 53
2021-02-14 13:00:00 18.1 10 Nordeste 20 Este 0 -- -- 52
2021-02-14 12:00:00 17 10 Nordeste 17 Este 0 -- -- 62
2021-02-14 11:00:00 13.1 0 Calma 7 Oeste 0 -- -- 77
2021-02-14 10:00:00 9.7 3 Oeste 7 Sudoeste 0 -- -- 79
2021-02-14 09:00:00 7.3 2 Sudoeste 5 Sudoeste 0 -- -- 86
2021-02-14 08:00:00 6.7 3 Sudoeste 6 Oeste 0 -- -- 87
2021-02-14 07:00:00 6.2 2 Este 4 Este 0 -- -- 88
2021-02-14 06:00:00 7.8 0 Calma 5 Sudoeste 0 -- -- 88
2021-02-14 05:00:00 6.8 2 Este 3 Este 0 -- -- 88
2021-02-14 04:00:00 7.9 0 Calma 4 Sudoeste 0 -- -- 85
2021-02-14 03:00:00 9.3 2 Norte 6 Norte 0 -- -- 86
2021-02-14 02:00:00 9.5 2 Este 9 Este 0 -- -- 82
2021-02-14 01:00:00 10.8 5 Oeste 10 Oeste 0 -- -- 85
2021-02-14 00:00:00 11.2 5 Sudoeste 10 Sudoeste 0 -- -- 83
2021-02-13 23:00:00 12.3 2 Sur 6 Oeste 0 -- -- 80
2021-02-13 22:00:00 13 3 Nordeste 9 Nordeste 0 -- -- 81
2021-02-13 21:00:00 14 6 Nordeste 20 Este 0 -- -- 77
2021-02-13 20:00:00 15.2 11 Este 27 Este 0 -- -- 69
2021-02-13 19:00:00 17.9 11 Este 19 Este 0 -- -- 53
2021-02-13 18:00:00 21.4 6 Sudoeste 12 Sudeste 0 -- -- 32
2021-02-13 17:00:00 22.1 5 Sudoeste 25 Sudoeste 0 -- -- 30
2021-02-13 16:00:00 22 10 Oeste 26 Oeste 0 -- -- 29
2021-02-13 15:00:00 22 13 Noroeste 28 Oeste 0 -- -- 29
2021-02-13 14:00:00 21.4 12 Oeste 26 Noroeste 0 -- -- 31
2021-02-13 13:00:00 20.4 14 Oeste 28 Oeste 0 -- -- 36
2021-02-13 08:00:00 -- -- -- -- -- -- -- -- --
2021-02-13 07:00:00 -- -- -- -- -- -- -- -- --
2021-02-13 06:00:00 -- -- -- -- -- -- -- -- --
2021-02-13 05:00:00 -- -- -- -- -- -- -- -- --
2021-02-13 04:00:00 -- -- -- -- -- -- -- -- --
2021-02-13 03:00:00 -- -- -- -- -- -- -- -- --
2021-02-13 02:00:00 -- -- -- -- -- -- -- -- --
2021-02-13 01:00:00 -- -- -- -- -- -- -- -- --
2021-02-13 00:00:00 16.1 8 Sudoeste 27 Sudoeste 0 -- -- 48
2021-02-12 23:00:00 16.9 12 Oeste 30 Sudoeste 0 -- -- 47
2021-02-12 22:00:00 18.3 18 Oeste 39 Oeste 0 -- -- 41
2021-02-12 21:00:00 18.9 18 Oeste 37 Oeste 0 -- -- 40
2021-02-12 20:00:00 19.4 21 Oeste 44 Oeste 0 -- -- 37
2021-02-12 19:00:00 20.1 17 Oeste 43 Oeste 0 -- -- 33
2021-02-12 18:00:00 21.3 12 Oeste 44 Sudoeste 0 -- -- 31
2021-02-12 17:00:00 22.1 20 Oeste 52 Oeste 0 -- -- 29
2021-02-12 16:00:00 22.8 19 Oeste 52 Oeste 0 -- -- 25
2021-02-12 15:00:00 23 28 Oeste 51 Oeste 0 -- -- 24
2021-02-12 14:00:00 22.9 21 Oeste 45 Oeste 0 -- -- 36
2021-02-12 13:00:00 22.4 24 Oeste 41 Oeste 0 -- -- 41
2021-02-12 12:00:00 21 6 Sudoeste 20 Sudoeste 0 -- -- 49
2021-02-12 11:00:00 18.7 5 Sudoeste 14 Oeste 0 -- -- 58
2021-02-12 10:00:00 15.5 6 Sudoeste 14 Sudoeste 0 -- -- 72
2021-02-12 09:00:00 13.9 3 Este 8 Sudoeste 0 -- -- 77
2021-02-12 08:00:00 13.8 4 Oeste 14 Sudoeste 0 -- -- 76
2021-02-12 07:00:00 14 4 Oeste 14 Sudoeste 0 -- -- 76
2021-02-12 06:00:00 14.2 6 Sudoeste 18 Sudoeste 0 -- -- 75
2021-02-12 05:00:00 13.5 2 Oeste 7 Oeste 0 -- -- 78
2021-02-12 04:00:00 13.5 3 Sudoeste 6 Sudoeste 0 -- -- 77
2021-02-12 03:00:00 13.6 0 Calma 6 Sudoeste 0 -- -- 77
2021-02-12 02:00:00 13.8 2 Oeste 8 Sudoeste 0 -- -- 77
2021-02-12 01:00:00 14.2 3 Sur 5 Sur 0 -- -- 75
2021-02-12 00:00:00 14.1 0 Calma 5 Sudoeste 0 -- -- 76
2021-02-11 23:00:00 13.7 0 Calma 4 Oeste 0 -- -- 77
2021-02-11 22:00:00 14.8 0 Calma 5 Este 0 -- -- 72
2021-02-11 21:00:00 16 0 Calma 4 Sudoeste 0 -- -- 68
2021-02-11 20:00:00 17.6 0 Calma 5 Noroeste 0 -- -- 62
2021-02-11 19:00:00 19.2 3 Norte 12 Sur 0 -- -- 57
2021-02-11 18:00:00 22.3 5 Sudeste 17 Sudeste 0 -- -- 47
2021-02-11 17:00:00 23.6 7 Sudeste 14 Sur 0 -- -- 40
2021-02-11 16:00:00 23.4 6 Sudeste 11 Este 0 -- -- 40
2021-02-11 15:00:00 23.4 3 Sudoeste 12 Oeste 0 -- -- 42
2021-02-11 14:00:00 22.7 6 Sudoeste 15 Sudoeste 0 -- -- 43
2021-02-11 13:00:00 21.7 5 Sudoeste 12 Sudoeste 0 -- -- 45
2021-02-11 12:00:00 19.5 4 Sur 13 Sudoeste 0 -- -- 47
2021-02-11 11:00:00 16.3 6 Sudoeste 10 Sudoeste 0 -- -- 51
2021-02-11 10:00:00 12.9 4 Oeste 9 Sudoeste 0 -- -- 58
2021-02-11 09:00:00 9.9 3 Oeste 5 Noroeste 0 -- -- 66
2021-02-11 08:00:00 8.3 3 Sudoeste 8 Sur 0 -- -- 70
2021-02-11 07:00:00 9.7 3 Sur 9 Sudoeste 0 -- -- 63
2021-02-11 06:00:00 9.8 2 Sudoeste 13 Sudoeste 0 -- -- 64
2021-02-11 05:00:00 10.7 3 Oeste 6 Noroeste 0 -- -- 61
2021-02-11 04:00:00 11.7 3 Oeste 8 Oeste 0 -- -- 57
2021-02-11 03:00:00 11.7 2 Oeste 7 Oeste 0 -- -- 60
2021-02-11 02:00:00 12.2 3 Sur 6 Sudoeste 0 -- -- 57
2021-02-11 01:00:00 12.9 3 Oeste 11 Sudeste 0 -- -- 55
2021-02-11 00:00:00 12.6 4 Sudeste 11 Sudeste 0 -- -- 54
2021-02-10 23:00:00 14.1 6 Oeste 27 Noroeste 0 -- -- 49
2021-02-10 22:00:00 17.9 12 Noroeste 27 Noroeste 0 -- -- 37
2021-02-10 21:00:00 17.3 3 Oeste 26 Noroeste 0 -- -- 40
2021-02-10 20:00:00 18.9 11 Oeste 21 Noroeste 0 -- -- 36
2021-02-10 19:00:00 19 8 Oeste 25 Oeste 0 -- -- 35
2021-02-10 18:00:00 21 16 Oeste 31 Sudoeste 0 -- -- 30
2021-02-10 17:00:00 22.3 16 Oeste 47 Oeste 0 -- -- 27
2021-02-10 16:00:00 22.2 19 Oeste 42 Oeste 0 -- -- 29
2021-02-10 15:00:00 21.3 18 Oeste 42 Oeste 0 -- -- 40
2021-02-10 14:00:00 19 7 Sudoeste 32 Sudoeste 0 -- -- 47
2021-02-10 13:00:00 18.4 4 Sur 24 Sudoeste 0 -- -- 47
2021-02-10 12:00:00 18.4 14 Sudoeste 29 Oeste 0 -- -- 48
2021-02-10 11:00:00 16.9 10 Oeste 22 Sudoeste 0 -- -- 53
2021-02-10 10:00:00 14.4 6 Oeste 15 Oeste 0 -- -- 59
2021-02-10 09:00:00 10.3 2 Sudoeste 6 Norte 0 -- -- 71
2021-02-10 08:00:00 8.9 0 Calma 4 Sudoeste 0 -- -- 73
2021-02-10 07:00:00 9.7 2 Noroeste 9 Sudoeste 0 -- -- 69
2021-02-10 06:00:00 9.7 3 Noroeste 10 Sudeste 0 -- -- 73
2021-02-10 05:00:00 8.5 3 Sur 7 Sudeste 0 -- -- 85
2021-02-10 04:00:00 9.1 2 Sur 5 Sudoeste 0 -- -- 81
2021-02-10 03:00:00 10.8 0 Calma 8 Sudoeste 0 -- -- 74
2021-02-10 02:00:00 13.6 4 Oeste 10 Sudoeste 0 -- -- 67
2021-02-10 01:00:00 14.7 3 Sur 16 Oeste 0 -- -- 63
2021-02-10 00:00:00 15.3 6 Sudoeste 13 Oeste 0 -- -- 60
2021-02-09 23:00:00 13.5 5 Oeste 14 Norte 0 -- -- 64
2021-02-09 22:00:00 10.8 3 Norte 8 Norte 0 -- -- 71
2021-02-09 21:00:00 10.9 0 Calma 7 Este 0 -- -- 71
2021-02-09 20:00:00 11.6 2 Oeste 9 Norte 0 -- -- 70
2021-02-09 19:00:00 12.4 5 Este 9 Este 0 -- -- 67
2021-02-09 18:00:00 13.9 6 Nordeste 12 Nordeste 0 -- -- 61
2021-02-09 17:00:00 14.5 4 Nordeste 12 Nordeste 0 -- -- 60
2021-02-09 16:00:00 14.5 5 Este 8 Este 0 -- -- 58
2021-02-09 15:00:00 14.2 2 Nordeste 7 Nordeste 0 -- -- 56
2021-02-09 14:00:00 13.7 0 Calma 6 Noroeste 0 -- -- 60
2021-02-09 13:00:00 12.5 0 Calma 8 Oeste 0 -- -- 59
2021-02-09 12:00:00 11.5 0 Calma 6 Sudeste 0 -- -- 61
2021-02-09 11:00:00 10.1 0 Calma 8 Oeste 0 -- -- 67
2021-02-09 10:00:00 8.8 3 Noroeste 10 Sudeste 0 -- -- 71
2021-02-09 09:00:00 8.1 3 Oeste 15 Noroeste 0 -- -- 71
2021-02-09 08:00:00 7.6 4 Oeste 6 Sudoeste 0 -- -- 72
2021-02-09 07:00:00 6.6 0 Calma 12 Sur 0 -- -- 76
2021-02-09 06:00:00 6.1 2 Sudoeste 6 Oeste 0 -- -- 78
2021-02-09 05:00:00 6.5 3 Sudeste 6 Sur 0 -- -- 75
2021-02-09 04:00:00 7.3 4 Sudoeste 10 Sudoeste 0 -- -- 73
2021-02-09 03:00:00 7.6 2 Noroeste 4 Noroeste 0 -- -- 73
2021-02-09 02:00:00 9.1 4 Sudeste 12 Sudeste 0 -- -- 65
2021-02-09 01:00:00 10 3 Oeste 8 Oeste 0 -- -- 63
2021-02-09 00:00:00 12.1 2 Oeste 13 Sur 0 -- -- 54
2021-02-08 23:00:00 13.2 6 Oeste 14 Oeste 0 -- -- 49
2021-02-08 22:00:00 13.8 7 Oeste 17 Oeste 0 -- -- 46
2021-02-08 21:00:00 13.9 8 Sudoeste 18 Sudoeste 0 -- -- 45
2021-02-08 20:00:00 14.8 10 Sudoeste 20 Sudoeste 0 -- -- 43
2021-02-08 19:00:00 15.8 14 Sudoeste 48 Sudoeste 0 -- -- 42
2021-02-08 18:00:00 18.1 23 Oeste 44 Oeste 0 -- -- 35
2021-02-08 17:00:00 18.5 17 Oeste 41 Oeste -- -- -- 34
2021-02-08 16:00:00 19.6 21 Oeste 40 Oeste 0 -- -- 30
2021-02-08 15:00:00 18.1 9 Oeste 33 Oeste 0 -- -- 34
2021-02-08 14:00:00 17.8 16 Oeste 33 Oeste 0 -- -- 35
2021-02-08 13:00:00 18.1 18 Oeste 38 Oeste 0 -- -- 36
2021-02-08 12:00:00 17.7 9 Oeste 24 Oeste 0 -- -- 47
2021-02-08 11:00:00 15.8 3 Sudoeste 9 Sudeste 0 -- -- 53
2021-02-08 10:00:00 12.1 3 Sur 5 Sur 0 -- -- 69
2021-02-08 09:00:00 10 2 Norte 5 Este 0 -- -- 67
2021-02-08 08:00:00 10 0 Calma 10 Sur 0 -- -- 65
2021-02-08 07:00:00 10.8 0 Calma 13 Sur 0 -- -- 61
2021-02-08 06:00:00 10.7 3 Sudoeste 12 Oeste 0 -- -- 62
2021-02-08 05:00:00 11 7 Oeste 14 Oeste 0 -- -- 60
2021-02-08 04:00:00 11.5 2 Sur 23 Sudoeste 0 -- -- 57
2021-02-08 03:00:00 13.3 6 Oeste 27 Oeste 0 -- -- 51
2021-02-08 02:00:00 14 12 Oeste 31 Oeste 0 -- -- 48
2021-02-08 01:00:00 13.1 6 Sudoeste 18 Sudoeste 0 -- -- 50
2021-02-08 00:00:00 13 4 Sudoeste 12 Sudoeste 0 -- -- 49
2021-02-07 23:00:00 13.4 4 Sudoeste 21 Sudoeste 0 -- -- 48
2021-02-07 22:00:00 14.4 11 Sudoeste 42 Oeste 0 -- -- 44
2021-02-07 21:00:00 15.5 23 Oeste 49 Oeste 0 -- -- 41
2021-02-07 20:00:00 15.8 24 Oeste 53 Oeste 0 -- -- 39
2021-02-07 19:00:00 16.4 30 Oeste 54 Oeste 0 -- -- 37
2021-02-07 18:00:00 17.5 27 Oeste 55 Oeste 0 -- -- 37
2021-02-07 17:00:00 18.6 22 Oeste 44 Oeste 0 -- -- 38
2021-02-07 16:00:00 17.9 14 Oeste 35 Oeste 0 -- -- 40
2021-02-07 15:00:00 18.6 15 Oeste 34 Oeste 0 -- -- 41
2021-02-07 14:00:00 17.3 12 Noroeste 30 Oeste 0 -- -- 47
2021-02-07 13:00:00 17.7 15 Oeste 37 Oeste 0 -- -- 45
2021-02-07 12:00:00 16.7 19 Oeste 34 Sudoeste 0 -- -- 47
2021-02-07 11:00:00 14.6 13 Sudoeste 23 Sudoeste 0 -- -- 55
2021-02-07 10:00:00 9.7 4 Sudoeste 8 Oeste 0 -- -- 72
2021-02-07 09:00:00 8.1 0 Calma 9 Sudoeste 0 -- -- 74
2021-02-07 08:00:00 7.4 0 Calma 6 Oeste 0 -- -- 75
2021-02-07 07:00:00 8.4 5 Sudoeste 12 Sudoeste 0 -- -- 71
2021-02-07 06:00:00 8.7 4 Sudoeste 19 Sudoeste 0 -- -- 70
2021-02-07 05:00:00 9 10 Sudoeste 17 Oeste 0 -- -- 71
2021-02-07 04:00:00 9.6 3 Sudoeste 14 Sudoeste 0 -- -- 66
2021-02-07 03:00:00 10.6 4 Sudoeste 12 Sudoeste 0 -- -- 66
2021-02-07 02:00:00 11.4 7 Sudoeste 17 Sudoeste 0 -- -- 61
2021-02-07 01:00:00 11.8 4 Sur 14 Sudoeste 0 -- -- 60
2021-02-07 00:00:00 13.2 10 Sudoeste 22 Sudoeste 0 -- -- 55
2021-02-06 23:00:00 13.1 12 Sudoeste 17 Sudoeste 0 -- -- 54
2021-02-06 22:00:00 12.8 3 Sudoeste 13 Sudoeste 0 -- -- 55
2021-02-06 21:00:00 14.9 4 Sudoeste 10 Sudoeste 0 -- -- 46
2021-02-06 20:00:00 17.1 5 Sudoeste 22 Oeste 0 -- -- 43
2021-02-06 19:00:00 17 3 Sudeste 15 Sur 0 -- -- 52
2021-02-06 18:00:00 17.9 4 Sur 21 Sur 0 -- -- 53
2021-02-06 17:00:00 19.3 8 Sudeste 23 Sur 0 -- -- 50
2021-02-06 16:00:00 20.1 5 Sudoeste 17 Sudoeste 0 -- -- 38
2021-02-06 15:00:00 19.8 6 Sudoeste 17 Sudoeste 0 -- -- 41
2021-02-06 14:00:00 19.3 4 Oeste 14 Sudoeste 0 -- -- 43
2021-02-06 13:00:00 18.3 4 Sudoeste 14 Sudoeste 0 -- -- 49
2021-02-06 12:00:00 16.7 5 Sudoeste 13 Sudoeste 0 -- -- 59
2021-02-06 11:00:00 14.7 4 Sudoeste 10 Noroeste 0 -- -- 69
2021-02-06 10:00:00 11.5 0 Calma 5 Sudeste 0 -- -- 81
2021-02-06 09:00:00 8.7 0 Calma 4 Sudoeste 0 -- -- 89
2021-02-06 08:00:00 9.2 4 Sudoeste 9 Sudoeste 0 -- -- 85
2021-02-06 07:00:00 8.5 0 Calma 5 Este 0 -- -- 85
2021-02-06 06:00:00 9.5 3 Este 8 Sudoeste 0 -- -- 84
2021-02-06 05:00:00 10.8 0 Calma 8 Oeste 0 -- -- 79
2021-02-06 04:00:00 10.4 0 Calma 6 Norte 0 -- -- 81
2021-02-06 03:00:00 11.8 3 Norte 6 Sudeste 0 -- -- 78
2021-02-06 02:00:00 13.5 3 Sudoeste 13 Sudoeste 0 -- -- 72
2021-02-06 01:00:00 14 4 Sudoeste 22 Sudoeste 0 -- -- 71
2021-02-06 00:00:00 14 10 Oeste 17 Oeste 0 -- -- 75
2021-02-05 23:00:00 14.1 8 Este 12 Este 0 -- -- 76
2021-02-05 22:00:00 14.2 4 Oeste 14 Sudoeste 0 -- -- 77
2021-02-05 21:00:00 14 3 Oeste 7 Noroeste 0 -- -- 78
2021-02-05 20:00:00 14.3 3 Este 9 Este 0 -- -- 77
2021-02-05 19:00:00 14.8 5 Nordeste 18 Este 0 -- -- 75
2021-02-05 18:00:00 16.1 9 Este 18 Nordeste 0 -- -- 68
2021-02-05 17:00:00 17.2 14 Este 24 Nordeste 0 -- -- 62
2021-02-05 16:00:00 17.9 10 Este 25 Este 0 -- -- 61
2021-02-05 15:00:00 18.1 14 Nordeste 28 Nordeste 0 -- -- 58
2021-02-05 14:00:00 18 13 Este 24 Nordeste 0 -- -- 59
2021-02-05 13:00:00 17.6 14 Este 27 Este 0 -- -- 61
2021-02-05 12:00:00 15 3 Este 6 Sudeste 0 -- -- 76
2021-02-05 11:00:00 12.4 4 Sudoeste 8 Sudoeste 0 -- -- 87
2021-02-05 10:00:00 10.8 5 Sudoeste 8 Sudoeste 0 -- -- 93
2021-02-05 09:00:00 8.7 0 Calma 4 Sudoeste 0 -- -- 93
2021-02-05 08:00:00 8.9 0 Calma 6 Sudoeste 0 -- -- 92
2021-02-05 07:00:00 9.5 2 Sudoeste 5 Sudoeste 0 -- -- 91
2021-02-05 06:00:00 10.2 3 Sur 6 Sudoeste 0 -- -- 91
2021-02-05 05:00:00 11.2 5 Sudoeste 12 Oeste 0 -- -- 91
2021-02-05 04:00:00 11 3 Oeste 6 Oeste 0 -- -- 89
2021-02-05 03:00:00 12.4 0 Calma 18 Este 0 -- -- 86
2021-02-05 02:00:00 13 5 Nordeste 20 Este 0 -- -- 86
2021-02-05 01:00:00 12.4 8 Nordeste 15 Norte 0 -- -- 91
2021-02-05 00:00:00 10.4 4 Nordeste 7 Sur 0 -- -- 88
2021-02-04 23:00:00 11.1 2 Oeste 4 Oeste 0 -- -- 88
2021-02-04 22:00:00 11.9 2 Oeste 4 Sudoeste 0 -- -- 87
2021-02-04 21:00:00 12.3 3 Nordeste 6 Este 0 -- -- 85
2021-02-04 20:00:00 13.2 2 Nordeste 9 Este 0 -- -- 83
2021-02-04 19:00:00 13.9 7 Este 17 Este 0 -- -- 81
2021-02-04 18:00:00 14.9 11 Este 22 Nordeste 0 -- -- 77
2021-02-04 17:00:00 15.8 13 Este 23 Nordeste 0 -- -- 73
2021-02-04 16:00:00 16.5 13 Nordeste 24 Nordeste 0 -- -- 71
2021-02-04 15:00:00 16.8 15 Nordeste 25 Este 0 -- -- 69
2021-02-04 14:00:00 17.6 12 Nordeste 21 Este 0 -- -- 66
2021-02-04 13:00:00 17.1 11 Este 22 Este 0 -- -- 62
2021-02-04 12:00:00 15.6 7 Este 13 Este 0 -- -- 65
2021-02-04 11:00:00 13.2 5 Este 11 Nordeste 0 -- -- 70
2021-02-04 10:00:00 10.8 0 Calma 5 Este 0 -- -- 80
2021-02-04 09:00:00 7.8 0 Calma 5 Sudoeste 0 -- -- 89
2021-02-04 08:00:00 7 3 Sudoeste 5 Sudoeste 0 -- -- 90
2021-02-04 07:00:00 7.5 3 Sudoeste 5 Sudoeste 0 -- -- 89
2021-02-04 06:00:00 8 0 Calma 5 Este 0 -- -- 87
2021-02-04 05:00:00 8.6 0 Calma 6 Sur 0 -- -- 86
2021-02-04 04:00:00 9.4 2 Sudoeste 6 Sudeste 0 -- -- 86
2021-02-04 03:00:00 9.6 0 Calma 5 Nordeste 0 -- -- 86
2021-02-04 02:00:00 9.7 3 Oeste 5 Oeste 0 -- -- 85
2021-02-04 01:00:00 10.8 2 Sur 6 Sur 0 -- -- 83
2021-02-04 00:00:00 11.3 0 Calma 4 Oeste 0 -- -- 83
2021-02-03 23:00:00 12.1 0 Calma 5 Este 0 -- -- 84
2021-02-03 22:00:00 12.6 3 Norte 9 Este 0 -- -- 81
2021-02-03 21:00:00 13.5 5 Este 9 Este 0 -- -- 75
2021-02-03 20:00:00 14.2 0 Calma 6 Sudeste 0 -- -- 65
2021-02-03 19:00:00 16.7 5 Sudeste 7 Sudeste 0 -- -- 55
2021-02-03 18:00:00 18.6 3 Oeste 8 Sudoeste 0 -- -- 47
2021-02-03 17:00:00 20.3 2 Sudoeste 18 Sudoeste 0 -- -- 42
2021-02-03 16:00:00 20.1 9 Sudoeste 16 Sudoeste 0 -- -- 44
2021-02-03 15:00:00 19.5 4 Sudoeste 13 Sudoeste 0 -- -- 44
2021-02-03 14:00:00 18.7 6 Sudoeste 15 Sudoeste 0 -- -- 48
2021-02-03 13:00:00 17.5 5 Sudoeste 17 Sudoeste 0 -- -- 51
2021-02-03 12:00:00 16.3 7 Sudoeste 14 Sudoeste 0 -- -- 55
2021-02-03 11:00:00 14.8 4 Sudoeste 14 Sudoeste 0 -- -- 61
2021-02-03 10:00:00 12.1 4 Sudoeste 10 Sudoeste 0 -- -- 71
2021-02-03 09:00:00 10.3 2 Sur 13 Sudoeste 0 -- -- 77
2021-02-03 08:00:00 10.3 3 Sudoeste 14 Sudoeste 0 -- -- 77
2021-02-03 07:00:00 10.8 7 Sudoeste 20 Sudoeste 0 -- -- 76
2021-02-03 06:00:00 10.2 3 Oeste 14 Sudoeste 0 -- -- 78
2021-02-03 05:00:00 10.8 2 Sur 14 Sudoeste -- -- -- 76
2021-02-03 04:00:00 11 2 Oeste 12 Sudoeste 0 -- -- 77
2021-02-03 03:00:00 10.1 3 Sudoeste 9 Sudoeste 0 -- -- 84
2021-02-03 02:00:00 9.9 2 Este 8 Sudeste 0 -- -- 80
2021-02-03 01:00:00 10.9 3 Oeste 6 Oeste 0 -- -- 78
2021-02-03 00:00:00 11.8 0 Calma 8 Sudoeste 0 -- -- 73
2021-02-02 23:00:00 12.7 0 Calma 4 Sur 0 -- -- 74
2021-02-02 22:00:00 13.6 4 Sudoeste 10 Oeste 0 -- -- 71
2021-02-02 21:00:00 14.7 6 Sudoeste 9 Oeste 0 -- -- 67
2021-02-02 20:00:00 16 4 Sudoeste 5 Sudeste 0 -- -- 63
2021-02-02 19:00:00 18.1 2 Noroeste 10 Sudeste 0 -- -- 55
2021-02-02 18:00:00 22.7 3 Sudeste 9 Sudeste 0 -- -- 42
2021-02-02 17:00:00 23.1 5 Oeste 13 Oeste 0 -- -- 36
2021-02-02 16:00:00 22.6 5 Oeste 13 Sudoeste 0 -- -- 37
2021-02-02 15:00:00 22.4 5 Sudoeste 17 Sudoeste 0 -- -- 37
2021-02-02 14:00:00 22.1 9 Sudoeste 22 Sudoeste 0 -- -- 41
2021-02-02 13:00:00 21 8 Oeste 17 Sudoeste 0 -- -- 45
2021-02-02 12:00:00 19.5 9 Sudoeste 21 Sudoeste 0 -- -- 47
2021-02-02 11:00:00 17.8 11 Sudoeste 21 Sudoeste 0 -- -- 51
2021-02-02 10:00:00 16.2 5 Sur 21 Oeste 0 -- -- 54
2021-02-02 09:00:00 15.6 11 Oeste 24 Oeste 0 -- -- 54
2021-02-02 08:00:00 15.3 10 Oeste 24 Sudoeste 0 -- -- 55
2021-02-02 07:00:00 15.8 15 Sudoeste 24 Sudoeste 0 -- -- 54
2021-02-02 06:00:00 16.1 15 Sudoeste 24 Sudoeste 0 -- -- 54
2021-02-02 05:00:00 16.4 9 Sudoeste 29 Sudoeste 0 -- -- 53
2021-02-02 04:00:00 16.4 9 Sudoeste 33 Noroeste 0 -- -- 53
2021-02-02 03:00:00 18.3 24 Oeste 47 Oeste 0 -- -- 47
2021-02-02 02:00:00 17.9 12 Oeste 32 Noroeste 0 -- -- 47
2021-02-02 01:00:00 18.2 13 Sudoeste 37 Oeste 0 -- -- 46
2021-02-02 00:00:00 18.4 15 Oeste 43 Oeste 0 -- -- 46
2021-02-01 23:00:00 19 21 Noroeste 39 Noroeste 0 -- -- 44
2021-02-01 22:00:00 19.4 13 Oeste 48 Oeste 0 -- -- 43
2021-02-01 21:00:00 19.5 12 Oeste 54 Oeste 0 -- -- 44
2021-02-01 20:00:00 20.2 26 Oeste 44 Oeste 0 -- -- 41
2021-02-01 19:00:00 20.8 15 Oeste 35 Sudoeste 0 -- -- 41
2021-02-01 18:00:00 22.3 15 Oeste 43 Oeste 0 -- -- 37
2021-02-01 17:00:00 23.9 16 Oeste 45 Sudoeste 0 -- -- 32
2021-02-01 16:00:00 24.5 22 Oeste 45 Sudoeste 0 -- -- 30
2021-02-01 15:00:00 24 19 Sudoeste 42 Sudoeste 0 -- -- 33
2021-02-01 14:00:00 23.5 21 Oeste 41 Oeste 0 -- -- 33
2021-02-01 13:00:00 -- -- -- -- -- -- -- -- --
2021-02-01 12:00:00 21.9 30 Oeste 56 Sudoeste 0 -- -- 36
2021-02-01 11:00:00 20.6 27 Oeste 59 Oeste 0 -- -- 39
2021-02-01 10:00:00 19.5 36 Oeste 60 Oeste 0 -- -- 40
2021-02-01 09:00:00 18.4 20 Oeste 45 Oeste 0 -- -- 41
2021-02-01 08:00:00 18.3 12 Oeste 37 Sudoeste 0 -- -- 40
2021-02-01 07:00:00 18.9 18 Sudoeste 67 Oeste 0 -- -- 39
2021-02-01 06:00:00 19.4 29 Oeste 58 Oeste 0 -- -- 38
2021-02-01 05:00:00 19.4 33 Oeste 72 Oeste 0 -- -- 40
2021-02-01 04:00:00 19.1 25 Oeste 57 Oeste 0 -- -- 43
2021-02-01 03:00:00 19.1 21 Oeste 54 Oeste 0 -- -- 46
2021-02-01 02:00:00 19.7 24 Oeste 53 Oeste 0 -- -- 48
2021-02-01 01:00:00 19 21 Oeste 45 Oeste 0 -- -- 50
2021-02-01 00:00:00 18.5 15 Oeste 31 Oeste 0 -- -- 51
2021-01-31 23:00:00 17.4 12 Oeste 27 Noroeste 0 -- -- 54
2021-01-31 22:00:00 18.8 11 Oeste 25 Oeste 0 -- -- 50
2021-01-31 21:00:00 19.2 19 Oeste 52 Oeste 0 -- -- 48
2021-01-31 20:00:00 19.5 23 Oeste 44 Oeste 0 -- -- 47
2021-01-31 19:00:00 19.8 19 Oeste 44 Oeste 0 -- -- 45
2021-01-31 18:00:00 20.5 20 Oeste 37 Oeste 0 -- -- 44
2021-01-31 17:00:00 20.4 14 Noroeste 38 Oeste 0 -- -- 44
2021-01-31 16:00:00 20.6 22 Oeste 57 Oeste 0 -- -- 42
2021-01-31 15:00:00 20.8 19 Oeste 40 Sudoeste 0 -- -- 42
2021-01-31 14:00:00 20 22 Oeste 44 Oeste 0 -- -- 42
2021-01-31 13:00:00 19.1 19 Oeste 34 Oeste 0 -- -- 42
2021-01-31 12:00:00 15.7 8 Sudoeste 19 Sudoeste 0 -- -- 45
2021-01-31 11:00:00 15 12 Oeste 33 Sudoeste 0 -- -- 48
2021-01-31 10:00:00 14.5 17 Oeste 30 Oeste 0 -- -- 47
2021-01-31 09:00:00 13.2 14 Sudoeste 24 Sudoeste 0 -- -- 49
2021-01-31 08:00:00 13.1 6 Sudoeste 18 Sudoeste 0 -- -- 52
2021-01-31 07:00:00 14.3 11 Sudoeste 36 Oeste 0 -- -- 48
2021-01-31 06:00:00 14.8 14 Oeste 36 Oeste 0 -- -- 46
2021-01-31 05:00:00 14.8 15 Oeste 50 Oeste 0 -- -- 45
2021-01-31 04:00:00 15 16 Oeste 40 Sudoeste 0 -- -- 43
2021-01-31 03:00:00 15.4 16 Oeste 41 Oeste 0 -- -- 41
2021-01-31 02:00:00 16 23 Oeste 50 Oeste 0 -- -- 39
2021-01-31 01:00:00 15.6 14 Oeste 42 Oeste 0 -- -- 41
2021-01-31 00:00:00 16.4 16 Oeste 46 Sudoeste 0 -- -- 39
2021-01-30 23:00:00 16.8 19 Oeste 42 Oeste 0 -- -- 38
2021-01-30 22:00:00 16.4 11 Oeste 29 Oeste 0 -- -- 39
2021-01-30 21:00:00 16.8 13 Oeste 45 Oeste 0 -- -- 37
2021-01-30 20:00:00 18 27 Oeste 59 Oeste 0 -- -- 34
2021-01-30 19:00:00 18.7 23 Oeste 56 Sudoeste 0 -- -- 33
2021-01-30 18:00:00 19.9 26 Oeste 64 Oeste 0 -- -- 30
2021-01-30 17:00:00 20.6 27 Oeste 56 Oeste 0 -- -- 29
2021-01-30 16:00:00 21.4 24 Oeste 54 Noroeste 0 -- -- 28
2021-01-30 15:00:00 22.2 16 Oeste 35 Oeste 0 -- -- 31
2021-01-30 14:00:00 21.2 12 Oeste 24 Sudoeste 0 -- -- 44
2021-01-30 13:00:00 20.1 12 Sudoeste 28 Oeste 0 -- -- 47
2021-01-30 12:00:00 19.3 13 Oeste 28 Oeste 0 -- -- 48
2021-01-30 11:00:00 19.8 15 Oeste 33 Oeste 0 -- -- 44
2021-01-30 10:00:00 18.2 15 Sudoeste 34 Oeste 0 -- -- 47
2021-01-30 09:00:00 10.7 3 Noroeste 8 Oeste 0 -- -- 72
2021-01-30 08:00:00 10.7 3 Sudoeste 9 Sudeste 0 -- -- 70
2021-01-30 07:00:00 11.5 3 Sudoeste 10 Sudeste 0 -- -- 68
2021-01-30 06:00:00 12.1 3 Oeste 14 Sudeste 0 -- -- 66
2021-01-30 05:00:00 13.1 5 Sudoeste 13 Oeste 0 -- -- 60
2021-01-30 04:00:00 12.4 3 Oeste 8 Sudoeste 0 -- -- 64
2021-01-30 03:00:00 14.3 2 Sudoeste 15 Sudoeste 0 -- -- 57
2021-01-30 02:00:00 14.8 6 Sudoeste 20 Sudoeste 0 -- -- 57
2021-01-30 01:00:00 15.8 6 Sur 15 Sudoeste 0 -- -- 55
2021-01-30 00:00:00 15 7 Sudoeste 15 Sudoeste 0 -- -- 59